Main page
METAR-TAF:

METAR-TAF

Airports :

Pembrey Airport

Pembrey, Wales

latitude: 51-43N, longitude: 004-22W, elevation: 3 m

Current weather observation

The report was made 1 hour and 0 minutes ago, at 09:50 UTC
Wind 26 kt from the West
Temperature 7°C
Humidity 93%
Pressure 1005 hPa
Visibility: 8000 m
Few clouds at a height of 1200 ft
Scattered clouds at a height of 1800 ft
Broken clouds at a height of 2800 ft
rain

METAR: EGOP 200950Z 28026KT 8000 RA FEW012 SCT018 BKN028 07/06 Q1005 WHT

Time: 10:50 (10:50 UTC)


TAF: missing

Weather observations and forecasts of more than 4000 airports (METAR and TAF reports).

The available stations are represented by yellow and red dots on the map.

Hover mouse over dot to see the name of the station.

Then click to see weather observations and forecasts.

To change the map : click on the green buttons with a black cross to zoom in, on the green button with a dash to zoom out, or on the green arrows for adjacent maps.


METAR-TAF: